sensor_id;sensor_type;location;lat;lon;timestamp;P1;durP1;ratioP1;P2;durP2;ratioP2
41759;SDS011;27438;53.396;-6.670;2022-09-21T00:00:48;6.05;;;3.67;;
41759;SDS011;27438;53.396;-6.670;2022-09-21T00:03:14;5.20;;;4.05;;
41759;SDS011;27438;53.396;-6.670;2022-09-21T00:05:40;5.22;;;3.70;;
41759;SDS011;27438;53.396;-6.670;2022-09-21T00:08:07;4.85;;;3.50;;
41759;SDS011;27438;53.396;-6.670;2022-09-21T00:10:34;6.38;;;3.60;;
41759;SDS011;27438;53.396;-6.670;2022-09-21T00:13:00;4.22;;;3.47;;
41759;SDS011;27438;53.396;-6.670;2022-09-21T00:15:27;5.60;;;3.63;;
41759;SDS011;27438;53.396;-6.670;2022-09-21T00:17:55;6.07;;;4.55;;
41759;SDS011;27438;53.396;-6.670;2022-09-21T00:20:22;6.68;;;3.50;;
41759;SDS011;27438;53.396;-6.670;2022-09-21T00:22:49;6.65;;;4.20;;
41759;SDS011;27438;53.396;-6.670;2022-09-21T00:25:15;5.57;;;4.50;;
41759;SDS011;27438;53.396;-6.670;2022-09-21T00:27:41;7.88;;;4.18;;
41759;SDS011;27438;53.396;-6.670;2022-09-21T00:30:07;7.60;;;4.78;;
41759;SDS011;27438;53.396;-6.670;2022-09-21T00:32:34;7.88;;;5.05;;
41759;SDS011;27438;53.396;-6.670;2022-09-21T00:35:02;6.78;;;4.63;;
41759;SDS011;27438;53.396;-6.670;2022-09-21T00:37:29;11.50;;;4.75;;
41759;SDS011;27438;53.396;-6.670;2022-09-21T00:39:55;8.38;;;4.82;;
41759;SDS011;27438;53.396;-6.670;2022-09-21T00:42:25;5.18;;;4.05;;
41759;SDS011;27438;53.396;-6.670;2022-09-21T00:44:53;6.38;;;5.55;;
41759;SDS011;27438;53.396;-6.670;2022-09-21T00:47:21;7.40;;;5.05;;
41759;SDS011;27438;53.396;-6.670;2022-09-21T00:49:57;6.63;;;4.70;;
41759;SDS011;27438;53.396;-6.670;2022-09-21T00:52:26;7.78;;;4.82;;
41759;SDS011;27438;53.396;-6.670;2022-09-21T00:54:57;9.05;;;5.68;;
41759;SDS011;27438;53.396;-6.670;2022-09-21T00:57:37;9.13;;;5.60;;
41759;SDS011;27438;53.396;-6.670;2022-09-21T01:00:04;7.47;;;4.80;;
41759;SDS011;27438;53.396;-6.670;2022-09-21T01:02:33;8.20;;;5.30;;
41759;SDS011;27438;53.396;-6.670;2022-09-21T01:05:03;6.43;;;5.00;;
41759;SDS011;27438;53.396;-6.670;2022-09-21T01:07:33;8.13;;;5.65;;
41759;SDS011;27438;53.396;-6.670;2022-09-21T01:10:03;8.13;;;5.45;;
41759;SDS011;27438;53.396;-6.670;2022-09-21T01:18:29;10.07;;;5.53;;
41759;SDS011;27438;53.396;-6.670;2022-09-21T01:29:12;7.20;;;5.60;;
41759;SDS011;27438;53.396;-6.670;2022-09-21T01:32:05;7.72;;;5.68;;
41759;SDS011;27438;53.396;-6.670;2022-09-21T01:37:28;12.02;;;6.18;;
41759;SDS011;27438;53.396;-6.670;2022-09-21T01:40:03;7.93;;;5.70;;
41759;SDS011;27438;53.396;-6.670;2022-09-21T01:42:35;8.05;;;5.55;;
41759;SDS011;27438;53.396;-6.670;2022-09-21T01:45:04;8.80;;;6.10;;
41759;SDS011;27438;53.396;-6.670;2022-09-21T01:47:33;9.60;;;6.40;;
41759;SDS011;27438;53.396;-6.670;2022-09-21T01:50:03;7.88;;;6.00;;
41759;SDS011;27438;53.396;-6.670;2022-09-21T01:52:39;7.80;;;5.75;;
41759;SDS011;27438;53.396;-6.670;2022-09-21T01:55:14;10.85;;;5.85;;
41759;SDS011;27438;53.396;-6.670;2022-09-21T01:57:54;11.98;;;6.38;;
41759;SDS011;27438;53.396;-6.670;2022-09-21T02:00:29;7.70;;;6.13;;
41759;SDS011;27438;53.396;-6.670;2022-09-21T02:05:28;11.05;;;6.75;;
41759;SDS011;27438;53.396;-6.670;2022-09-21T02:07:54;14.77;;;7.75;;
41759;SDS011;27438;53.396;-6.670;2022-09-21T02:10:32;10.18;;;6.85;;
41759;SDS011;27438;53.396;-6.670;2022-09-21T02:13:09;12.18;;;7.40;;
41759;SDS011;27438;53.396;-6.670;2022-09-21T02:15:47;11.25;;;7.40;;
41759;SDS011;27438;53.396;-6.670;2022-09-21T02:21:31;8.40;;;6.55;;
41759;SDS011;27438;53.396;-6.670;2022-09-21T02:24:34;10.93;;;7.70;;
41759;SDS011;27438;53.396;-6.670;2022-09-21T02:27:05;13.20;;;7.35;;
41759;SDS011;27438;53.396;-6.670;2022-09-21T02:33:14;12.30;;;7.57;;
41759;SDS011;27438;53.396;-6.670;2022-09-21T02:38:02;10.77;;;7.63;;
41759;SDS011;27438;53.396;-6.670;2022-09-21T02:40:49;12.05;;;8.02;;
41759;SDS011;27438;53.396;-6.670;2022-09-21T02:45:57;14.38;;;9.40;;
41759;SDS011;27438;53.396;-6.670;2022-09-21T02:48:33;11.30;;;8.70;;
41759;SDS011;27438;53.396;-6.670;2022-09-21T02:51:06;13.23;;;8.98;;
41759;SDS011;27438;53.396;-6.670;2022-09-21T02:53:34;13.38;;;9.15;;
41759;SDS011;27438;53.396;-6.670;2022-09-21T02:56:02;17.05;;;10.05;;
41759;SDS011;27438;53.396;-6.670;2022-09-21T02:58:33;13.63;;;9.63;;
41759;SDS011;27438;53.396;-6.670;2022-09-21T03:01:02;12.98;;;9.73;;
41759;SDS011;27438;53.396;-6.670;2022-09-21T03:03:32;15.85;;;10.70;;
41759;SDS011;27438;53.396;-6.670;2022-09-21T03:05:59;21.25;;;12.02;;
41759;SDS011;27438;53.396;-6.670;2022-09-21T03:08:26;15.88;;;11.05;;
41759;SDS011;27438;53.396;-6.670;2022-09-21T03:10:52;15.43;;;10.52;;
41759;SDS011;27438;53.396;-6.670;2022-09-21T03:13:18;17.83;;;10.85;;
41759;SDS011;27438;53.396;-6.670;2022-09-21T03:15:44;18.27;;;11.55;;
41759;SDS011;27438;53.396;-6.670;2022-09-21T03:18:11;19.90;;;12.70;;
41759;SDS011;27438;53.396;-6.670;2022-09-21T03:20:38;22.70;;;11.95;;
41759;SDS011;27438;53.396;-6.670;2022-09-21T03:23:05;18.67;;;12.65;;
41759;SDS011;27438;53.396;-6.670;2022-09-21T03:25:32;17.65;;;12.18;;
41759;SDS011;27438;53.396;-6.670;2022-09-21T03:27:57;18.40;;;12.07;;
41759;SDS011;27438;53.396;-6.670;2022-09-21T03:30:24;19.58;;;13.20;;
41759;SDS011;27438;53.396;-6.670;2022-09-21T03:32:51;21.75;;;14.07;;
41759;SDS011;27438;53.396;-6.670;2022-09-21T03:35:18;21.55;;;13.50;;
41759;SDS011;27438;53.396;-6.670;2022-09-21T03:37:45;22.38;;;13.85;;
41759;SDS011;27438;53.396;-6.670;2022-09-21T03:40:12;26.00;;;15.07;;
41759;SDS011;27438;53.396;-6.670;2022-09-21T03:42:39;21.42;;;14.43;;
41759;SDS011;27438;53.396;-6.670;2022-09-21T03:45:05;25.73;;;16.73;;
41759;SDS011;27438;53.396;-6.670;2022-09-21T03:47:32;20.30;;;14.50;;
41759;SDS011;27438;53.396;-6.670;2022-09-21T03:49:58;22.58;;;14.77;;
41759;SDS011;27438;53.396;-6.670;2022-09-21T03:52:23;24.02;;;16.23;;
41759;SDS011;27438;53.396;-6.670;2022-09-21T03:54:49;25.58;;;15.52;;
41759;SDS011;27438;53.396;-6.670;2022-09-21T03:57:15;19.67;;;13.75;;
41759;SDS011;27438;53.396;-6.670;2022-09-21T03:59:41;19.98;;;13.80;;
41759;SDS011;27438;53.396;-6.670;2022-09-21T04:02:06;23.38;;;15.35;;
41759;SDS011;27438;53.396;-6.670;2022-09-21T04:04:32;26.63;;;16.23;;
41759;SDS011;27438;53.396;-6.670;2022-09-21T04:06:58;25.02;;;15.88;;
41759;SDS011;27438;53.396;-6.670;2022-09-21T04:09:24;25.00;;;15.40;;
41759;SDS011;27438;53.396;-6.670;2022-09-21T04:11:50;23.83;;;17.25;;
41759;SDS011;27438;53.396;-6.670;2022-09-21T04:14:18;24.90;;;16.80;;
41759;SDS011;27438;53.396;-6.670;2022-09-21T04:16:44;22.45;;;15.27;;
41759;SDS011;27438;53.396;-6.670;2022-09-21T04:19:10;24.25;;;16.00;;
41759;SDS011;27438;53.396;-6.670;2022-09-21T04:21:36;24.38;;;15.35;;
41759;SDS011;27438;53.396;-6.670;2022-09-21T04:24:02;23.73;;;15.30;;
41759;SDS011;27438;53.396;-6.670;2022-09-21T04:26:30;22.08;;;15.65;;
41759;SDS011;27438;53.396;-6.670;2022-09-21T04:28:58;25.80;;;16.08;;
41759;SDS011;27438;53.396;-6.670;2022-09-21T04:31:25;25.80;;;15.02;;
41759;SDS011;27438;53.396;-6.670;2022-09-21T04:33:52;27.17;;;15.73;;
41759;SDS011;27438;53.396;-6.670;2022-09-21T04:36:22;23.77;;;15.38;;
41759;SDS011;27438;53.396;-6.670;2022-09-21T04:38:49;24.10;;;14.75;;
41759;SDS011;27438;53.396;-6.670;2022-09-21T04:41:15;24.40;;;15.75;;
41759;SDS011;27438;53.396;-6.670;2022-09-21T04:43:44;25.42;;;15.35;;
41759;SDS011;27438;53.396;-6.670;2022-09-21T04:46:12;22.33;;;14.48;;
41759;SDS011;27438;53.396;-6.670;2022-09-21T04:48:40;23.90;;;14.75;;
41759;SDS011;27438;53.396;-6.670;2022-09-21T04:51:06;21.15;;;14.20;;
41759;SDS011;27438;53.396;-6.670;2022-09-21T04:53:34;21.38;;;15.02;;
41759;SDS011;27438;53.396;-6.670;2022-09-21T04:56:01;23.17;;;14.10;;
41759;SDS011;27438;53.396;-6.670;2022-09-21T04:58:28;21.95;;;14.65;;
41759;SDS011;27438;53.396;-6.670;2022-09-21T05:00:54;23.33;;;14.40;;
41759;SDS011;27438;53.396;-6.670;2022-09-21T05:03:20;22.85;;;14.25;;
41759;SDS011;27438;53.396;-6.670;2022-09-21T05:05:48;18.95;;;13.32;;
41759;SDS011;27438;53.396;-6.670;2022-09-21T05:08:15;20.10;;;13.77;;
41759;SDS011;27438;53.396;-6.670;2022-09-21T05:10:41;21.60;;;14.27;;
41759;SDS011;27438;53.396;-6.670;2022-09-21T05:13:08;17.88;;;12.90;;
41759;SDS011;27438;53.396;-6.670;2022-09-21T05:15:37;21.20;;;14.23;;
41759;SDS011;27438;53.396;-6.670;2022-09-21T05:18:03;20.35;;;13.13;;
41759;SDS011;27438;53.396;-6.670;2022-09-21T05:20:29;21.38;;;13.75;;
41759;SDS011;27438;53.396;-6.670;2022-09-21T05:22:58;22.40;;;13.38;;
41759;SDS011;27438;53.396;-6.670;2022-09-21T05:25:26;23.88;;;14.13;;
41759;SDS011;27438;53.396;-6.670;2022-09-21T05:27:51;21.85;;;14.65;;
41759;SDS011;27438;53.396;-6.670;2022-09-21T05:30:17;23.77;;;14.48;;
41759;SDS011;27438;53.396;-6.670;2022-09-21T05:32:53;19.30;;;13.23;;
41759;SDS011;27438;53.396;-6.670;2022-09-21T05:38:15;20.27;;;13.77;;
41759;SDS011;27438;53.396;-6.670;2022-09-21T05:40:42;20.63;;;12.73;;
41759;SDS011;27438;53.396;-6.670;2022-09-21T05:43:09;22.23;;;13.68;;
41759;SDS011;27438;53.396;-6.670;2022-09-21T05:45:36;18.98;;;12.77;;
41759;SDS011;27438;53.396;-6.670;2022-09-21T05:48:22;19.65;;;13.13;;
41759;SDS011;27438;53.396;-6.670;2022-09-21T05:51:11;20.60;;;13.30;;
41759;SDS011;27438;53.396;-6.670;2022-09-21T06:04:31;20.38;;;12.77;;
41759;SDS011;27438;53.396;-6.670;2022-09-21T06:06:57;18.73;;;13.40;;
41759;SDS011;27438;53.396;-6.670;2022-09-21T06:09:23;21.98;;;13.25;;
41759;SDS011;27438;53.396;-6.670;2022-09-21T06:11:50;21.08;;;13.05;;
41759;SDS011;27438;53.396;-6.670;2022-09-21T06:14:15;19.60;;;13.10;;
41759;SDS011;27438;53.396;-6.670;2022-09-21T06:16:51;18.20;;;12.63;;
41759;SDS011;27438;53.396;-6.670;2022-09-21T06:19:17;17.45;;;11.80;;
41759;SDS011;27438;53.396;-6.670;2022-09-21T06:21:43;20.42;;;12.70;;
41759;SDS011;27438;53.396;-6.670;2022-09-21T06:24:09;19.77;;;12.27;;
41759;SDS011;27438;53.396;-6.670;2022-09-21T06:26:35;20.88;;;12.63;;
41759;SDS011;27438;53.396;-6.670;2022-09-21T06:29:01;15.32;;;10.55;;
41759;SDS011;27438;53.396;-6.670;2022-09-21T06:31:27;15.30;;;11.15;;
41759;SDS011;27438;53.396;-6.670;2022-09-21T06:33:54;15.48;;;10.45;;
41759;SDS011;27438;53.396;-6.670;2022-09-21T06:36:20;17.25;;;11.57;;
41759;SDS011;27438;53.396;-6.670;2022-09-21T06:38:45;15.00;;;10.25;;
41759;SDS011;27438;53.396;-6.670;2022-09-21T06:41:11;16.00;;;9.88;;
41759;SDS011;27438;53.396;-6.670;2022-09-21T06:43:37;14.45;;;9.52;;
41759;SDS011;27438;53.396;-6.670;2022-09-21T06:46:03;19.33;;;10.70;;
41759;SDS011;27438;53.396;-6.670;2022-09-21T06:48:29;17.20;;;11.00;;
41759;SDS011;27438;53.396;-6.670;2022-09-21T06:50:57;15.38;;;10.07;;
41759;SDS011;27438;53.396;-6.670;2022-09-21T06:53:24;16.50;;;10.15;;
41759;SDS011;27438;53.396;-6.670;2022-09-21T06:55:50;14.45;;;8.98;;
41759;SDS011;27438;53.396;-6.670;2022-09-21T06:58:17;14.70;;;9.35;;
41759;SDS011;27438;53.396;-6.670;2022-09-21T07:00:43;12.90;;;9.15;;
41759;SDS011;27438;53.396;-6.670;2022-09-21T07:03:09;13.27;;;8.88;;
41759;SDS011;27438;53.396;-6.670;2022-09-21T07:05:37;13.95;;;8.77;;
41759;SDS011;27438;53.396;-6.670;2022-09-21T07:08:03;12.05;;;9.13;;
41759;SDS011;27438;53.396;-6.670;2022-09-21T07:10:29;12.50;;;8.57;;
41759;SDS011;27438;53.396;-6.670;2022-09-21T07:12:59;11.23;;;8.18;;
41759;SDS011;27438;53.396;-6.670;2022-09-21T07:17:53;9.30;;;6.82;;
41759;SDS011;27438;53.396;-6.670;2022-09-21T07:20:19;11.15;;;7.63;;
41759;SDS011;27438;53.396;-6.670;2022-09-21T07:22:46;11.20;;;6.47;;
41759;SDS011;27438;53.396;-6.670;2022-09-21T07:25:11;11.65;;;6.97;;
41759;SDS011;27438;53.396;-6.670;2022-09-21T07:27:38;10.23;;;7.28;;
41759;SDS011;27438;53.396;-6.670;2022-09-21T07:30:04;9.95;;;6.20;;
41759;SDS011;27438;53.396;-6.670;2022-09-21T07:32:31;8.93;;;5.85;;
41759;SDS011;27438;53.396;-6.670;2022-09-21T07:34:57;9.20;;;6.75;;
41759;SDS011;27438;53.396;-6.670;2022-09-21T07:37:25;8.65;;;6.13;;
41759;SDS011;27438;53.396;-6.670;2022-09-21T07:39:52;8.00;;;5.47;;
41759;SDS011;27438;53.396;-6.670;2022-09-21T07:42:18;8.98;;;4.93;;
41759;SDS011;27438;53.396;-6.670;2022-09-21T07:44:46;7.25;;;5.07;;
41759;SDS011;27438;53.396;-6.670;2022-09-21T07:47:12;5.55;;;4.05;;
41759;SDS011;27438;53.396;-6.670;2022-09-21T07:49:39;8.15;;;4.88;;
41759;SDS011;27438;53.396;-6.670;2022-09-21T07:52:05;10.25;;;5.53;;
41759;SDS011;27438;53.396;-6.670;2022-09-21T07:54:31;5.55;;;3.95;;
41759;SDS011;27438;53.396;-6.670;2022-09-21T07:56:58;5.85;;;4.07;;
41759;SDS011;27438;53.396;-6.670;2022-09-21T07:59:42;6.60;;;3.55;;
41759;SDS011;27438;53.396;-6.670;2022-09-21T08:02:08;6.68;;;4.10;;
41759;SDS011;27438;53.396;-6.670;2022-09-21T08:04:34;6.00;;;3.97;;
41759;SDS011;27438;53.396;-6.670;2022-09-21T08:07:00;5.88;;;3.95;;
41759;SDS011;27438;53.396;-6.670;2022-09-21T08:09:26;6.97;;;3.38;;
41759;SDS011;27438;53.396;-6.670;2022-09-21T08:11:51;5.13;;;3.05;;
41759;SDS011;27438;53.396;-6.670;2022-09-21T08:14:19;5.18;;;3.47;;
41759;SDS011;27438;53.396;-6.670;2022-09-21T08:16:46;7.70;;;3.53;;
41759;SDS011;27438;53.396;-6.670;2022-09-21T08:19:12;4.55;;;2.92;;
41759;SDS011;27438;53.396;-6.670;2022-09-21T08:21:39;5.63;;;3.22;;
41759;SDS011;27438;53.396;-6.670;2022-09-21T08:24:05;5.80;;;3.38;;
41759;SDS011;27438;53.396;-6.670;2022-09-21T08:26:31;5.88;;;3.05;;
41759;SDS011;27438;53.396;-6.670;2022-09-21T08:28:57;3.40;;;2.50;;
41759;SDS011;27438;53.396;-6.670;2022-09-21T08:31:23;3.38;;;2.40;;
41759;SDS011;27438;53.396;-6.670;2022-09-21T08:33:50;2.88;;;1.90;;
41759;SDS011;27438;53.396;-6.670;2022-09-21T08:36:17;3.38;;;2.63;;
41759;SDS011;27438;53.396;-6.670;2022-09-21T08:38:43;5.28;;;2.38;;
41759;SDS011;27438;53.396;-6.670;2022-09-21T08:41:12;2.88;;;1.83;;
41759;SDS011;27438;53.396;-6.670;2022-09-21T08:43:39;2.35;;;1.80;;
41759;SDS011;27438;53.396;-6.670;2022-09-21T08:46:12;4.15;;;1.88;;
41759;SDS011;27438;53.396;-6.670;2022-09-21T08:48:46;3.53;;;2.15;;
41759;SDS011;27438;53.396;-6.670;2022-09-21T08:51:27;3.60;;;1.80;;
41759;SDS011;27438;53.396;-6.670;2022-09-21T08:53:58;2.85;;;1.50;;
41759;SDS011;27438;53.396;-6.670;2022-09-21T08:56:27;3.13;;;1.58;;
41759;SDS011;27438;53.396;-6.670;2022-09-21T08:58:53;3.38;;;1.90;;
41759;SDS011;27438;53.396;-6.670;2022-09-21T09:06:47;2.95;;;1.40;;
41759;SDS011;27438;53.396;-6.670;2022-09-21T09:12:14;2.63;;;1.70;;
41759;SDS011;27438;53.396;-6.670;2022-09-21T09:18:17;1.55;;;1.33;;
41759;SDS011;27438;53.396;-6.670;2022-09-21T09:21:02;2.45;;;1.80;;
41759;SDS011;27438;53.396;-6.670;2022-09-21T09:23:31;1.83;;;1.35;;
41759;SDS011;27438;53.396;-6.670;2022-09-21T09:26:05;4.97;;;1.73;;
41759;SDS011;27438;53.396;-6.670;2022-09-21T09:28:53;2.53;;;1.45;;
41759;SDS011;27438;53.396;-6.670;2022-09-21T09:31:24;3.10;;;1.70;;
41759;SDS011;27438;53.396;-6.670;2022-09-21T09:36:45;2.58;;;1.50;;
41759;SDS011;27438;53.396;-6.670;2022-09-21T09:39:13;6.93;;;1.63;;
41759;SDS011;27438;53.396;-6.670;2022-09-21T09:52:35;2.42;;;1.30;;
41759;SDS011;27438;53.396;-6.670;2022-09-21T09:55:10;3.28;;;1.67;;
41759;SDS011;27438;53.396;-6.670;2022-09-21T09:57:38;3.97;;;1.63;;
41759;SDS011;27438;53.396;-6.670;2022-09-21T10:00:06;2.05;;;1.50;;
41759;SDS011;27438;53.396;-6.670;2022-09-21T10:02:44;1.95;;;1.45;;
41759;SDS011;27438;53.396;-6.670;2022-09-21T10:07:55;4.55;;;1.88;;
41759;SDS011;27438;53.396;-6.670;2022-09-21T10:15:20;1.65;;;1.50;;
41759;SDS011;27438;53.396;-6.670;2022-09-21T10:18:02;3.25;;;1.67;;
41759;SDS011;27438;53.396;-6.670;2022-09-21T10:20:34;2.35;;;1.23;;
41759;SDS011;27438;53.396;-6.670;2022-09-21T10:23:00;1.60;;;1.33;;
41759;SDS011;27438;53.396;-6.670;2022-09-21T10:25:27;6.05;;;1.90;;
41759;SDS011;27438;53.396;-6.670;2022-09-21T10:27:54;2.15;;;1.48;;
41759;SDS011;27438;53.396;-6.670;2022-09-21T10:30:31;1.65;;;1.45;;
41759;SDS011;27438;53.396;-6.670;2022-09-21T10:32:59;2.75;;;1.50;;
41759;SDS011;27438;53.396;-6.670;2022-09-21T10:35:25;3.08;;;1.75;;
41759;SDS011;27438;53.396;-6.670;2022-09-21T10:38:10;2.20;;;1.50;;
41759;SDS011;27438;53.396;-6.670;2022-09-21T10:40:44;2.33;;;1.63;;
41759;SDS011;27438;53.396;-6.670;2022-09-21T10:45:58;2.65;;;1.83;;
41759;SDS011;27438;53.396;-6.670;2022-09-21T10:48:24;2.33;;;1.60;;
41759;SDS011;27438;53.396;-6.670;2022-09-21T10:50:52;4.70;;;1.80;;
41759;SDS011;27438;53.396;-6.670;2022-09-21T10:53:26;2.45;;;1.60;;
41759;SDS011;27438;53.396;-6.670;2022-09-21T10:55:58;2.22;;;2.08;;
41759;SDS011;27438;53.396;-6.670;2022-09-21T10:58:28;1.88;;;1.77;;
41759;SDS011;27438;53.396;-6.670;2022-09-21T11:00:55;2.22;;;2.03;;
41759;SDS011;27438;53.396;-6.670;2022-09-21T11:06:41;5.57;;;1.70;;
41759;SDS011;27438;53.396;-6.670;2022-09-21T11:22:46;2.75;;;1.92;;
41759;SDS011;27438;53.396;-6.670;2022-09-21T11:28:20;2.95;;;2.10;;
41759;SDS011;27438;53.396;-6.670;2022-09-21T11:33:53;2.35;;;2.15;;
41759;SDS011;27438;53.396;-6.670;2022-09-21T11:44:56;2.80;;;2.03;;
41759;SDS011;27438;53.396;-6.670;2022-09-21T11:56:39;4.95;;;2.42;;
41759;SDS011;27438;53.396;-6.670;2022-09-21T12:12:24;3.25;;;1.85;;
41759;SDS011;27438;53.396;-6.670;2022-09-21T12:17:46;6.18;;;1.80;;
41759;SDS011;27438;53.396;-6.670;2022-09-21T12:20:28;3.65;;;1.88;;
41759;SDS011;27438;53.396;-6.670;2022-09-21T12:23:06;3.13;;;1.80;;
41759;SDS011;27438;53.396;-6.670;2022-09-21T12:25:45;3.58;;;2.00;;
41759;SDS011;27438;53.396;-6.670;2022-09-21T12:31:08;3.00;;;2.40;;
41759;SDS011;27438;53.396;-6.670;2022-09-21T12:34:00;2.78;;;1.95;;
41759;SDS011;27438;53.396;-6.670;2022-09-21T12:36:57;3.92;;;2.20;;
41759;SDS011;27438;53.396;-6.670;2022-09-21T12:40:16;4.68;;;2.22;;
41759;SDS011;27438;53.396;-6.670;2022-09-21T12:42:57;2.03;;;1.73;;
41759;SDS011;27438;53.396;-6.670;2022-09-21T12:45:32;3.47;;;2.05;;
41759;SDS011;27438;53.396;-6.670;2022-09-21T12:51:01;2.20;;;1.75;;
41759;SDS011;27438;53.396;-6.670;2022-09-21T12:53:40;3.42;;;2.25;;
41759;SDS011;27438;53.396;-6.670;2022-09-21T12:56:20;2.70;;;2.10;;
41759;SDS011;27438;53.396;-6.670;2022-09-21T13:02:19;4.55;;;2.30;;
41759;SDS011;27438;53.396;-6.670;2022-09-21T13:12:53;4.78;;;2.15;;
41759;SDS011;27438;53.396;-6.670;2022-09-21T13:15:26;3.80;;;2.10;;
41759;SDS011;27438;53.396;-6.670;2022-09-21T13:17:58;8.63;;;1.90;;
41759;SDS011;27438;53.396;-6.670;2022-09-21T13:20:26;5.07;;;2.50;;
41759;SDS011;27438;53.396;-6.670;2022-09-21T13:23:00;4.80;;;1.70;;
41759;SDS011;27438;53.396;-6.670;2022-09-21T13:25:28;3.35;;;1.73;;
41759;SDS011;27438;53.396;-6.670;2022-09-21T13:30:44;3.50;;;1.77;;
41759;SDS011;27438;53.396;-6.670;2022-09-21T13:41:19;2.17;;;1.38;;
41759;SDS011;27438;53.396;-6.670;2022-09-21T13:51:30;2.45;;;1.48;;
41759;SDS011;27438;53.396;-6.670;2022-09-21T13:53:57;4.47;;;1.70;;
41759;SDS011;27438;53.396;-6.670;2022-09-21T13:56:25;3.40;;;2.05;;
41759;SDS011;27438;53.396;-6.670;2022-09-21T13:58:54;4.78;;;1.90;;
41759;SDS011;27438;53.396;-6.670;2022-09-21T14:01:32;2.47;;;1.98;;
41759;SDS011;27438;53.396;-6.670;2022-09-21T14:04:01;7.55;;;2.65;;
41759;SDS011;27438;53.396;-6.670;2022-09-21T14:06:41;2.90;;;2.25;;
41759;SDS011;27438;53.396;-6.670;2022-09-21T14:09:25;3.95;;;2.10;;
41759;SDS011;27438;53.396;-6.670;2022-09-21T14:12:05;5.40;;;2.17;;
41759;SDS011;27438;53.396;-6.670;2022-09-21T14:14:37;4.45;;;2.00;;
41759;SDS011;27438;53.396;-6.670;2022-09-21T14:19:59;3.10;;;2.33;;
41759;SDS011;27438;53.396;-6.670;2022-09-21T14:25:14;5.00;;;1.90;;
41759;SDS011;27438;53.396;-6.670;2022-09-21T14:27:46;6.25;;;2.03;;
41759;SDS011;27438;53.396;-6.670;2022-09-21T14:30:23;5.65;;;1.98;;
41759;SDS011;27438;53.396;-6.670;2022-09-21T14:35:24;3.47;;;2.17;;
41759;SDS011;27438;53.396;-6.670;2022-09-21T14:37:56;3.20;;;1.50;;
41759;SDS011;27438;53.396;-6.670;2022-09-21T14:40:26;3.03;;;1.60;;
41759;SDS011;27438;53.396;-6.670;2022-09-21T14:43:00;5.85;;;1.85;;
41759;SDS011;27438;53.396;-6.670;2022-09-21T14:45:55;6.32;;;2.17;;
41759;SDS011;27438;53.396;-6.670;2022-09-21T14:48:44;2.78;;;1.50;;
41759;SDS011;27438;53.396;-6.670;2022-09-21T14:51:19;6.00;;;2.00;;
41759;SDS011;27438;53.396;-6.670;2022-09-21T14:56:27;5.25;;;2.20;;
41759;SDS011;27438;53.396;-6.670;2022-09-21T14:59:34;3.35;;;1.58;;
41759;SDS011;27438;53.396;-6.670;2022-09-21T15:02:19;7.03;;;1.63;;
41759;SDS011;27438;53.396;-6.670;2022-09-21T15:16:49;3.97;;;1.80;;
41759;SDS011;27438;53.396;-6.670;2022-09-21T15:19:28;3.40;;;1.40;;
41759;SDS011;27438;53.396;-6.670;2022-09-21T15:22:13;4.90;;;2.25;;
41759;SDS011;27438;53.396;-6.670;2022-09-21T15:24:48;10.85;;;1.80;;
41759;SDS011;27438;53.396;-6.670;2022-09-21T15:27:15;4.32;;;1.92;;
41759;SDS011;27438;53.396;-6.670;2022-09-21T15:29:43;4.32;;;1.60;;
41759;SDS011;27438;53.396;-6.670;2022-09-21T15:37:56;3.40;;;1.75;;
41759;SDS011;27438;53.396;-6.670;2022-09-21T15:48:33;4.72;;;1.63;;
41759;SDS011;27438;53.396;-6.670;2022-09-21T15:54:01;6.20;;;1.67;;
41759;SDS011;27438;53.396;-6.670;2022-09-21T15:56:33;3.45;;;1.20;;
41759;SDS011;27438;53.396;-6.670;2022-09-21T15:59:04;6.43;;;1.38;;
41759;SDS011;27438;53.396;-6.670;2022-09-21T16:01:40;3.90;;;1.65;;
41759;SDS011;27438;53.396;-6.670;2022-09-21T16:04:12;4.50;;;1.55;;
41759;SDS011;27438;53.396;-6.670;2022-09-21T16:06:47;2.95;;;1.73;;
41759;SDS011;27438;53.396;-6.670;2022-09-21T16:11:53;2.60;;;1.13;;
41759;SDS011;27438;53.396;-6.670;2022-09-21T16:14:19;3.58;;;1.75;;
41759;SDS011;27438;53.396;-6.670;2022-09-21T16:19:43;5.45;;;1.52;;
41759;SDS011;27438;53.396;-6.670;2022-09-21T16:22:35;4.90;;;1.65;;
41759;SDS011;27438;53.396;-6.670;2022-09-21T16:25:02;3.08;;;1.35;;
41759;SDS011;27438;53.396;-6.670;2022-09-21T16:27:53;3.78;;;1.30;;
41759;SDS011;27438;53.396;-6.670;2022-09-21T16:30:45;1.85;;;1.10;;
41759;SDS011;27438;53.396;-6.670;2022-09-21T16:38:45;5.28;;;1.45;;
41759;SDS011;27438;53.396;-6.670;2022-09-21T16:41:25;3.13;;;1.27;;
41759;SDS011;27438;53.396;-6.670;2022-09-21T16:44:02;7.20;;;1.55;;
41759;SDS011;27438;53.396;-6.670;2022-09-21T16:46:29;2.20;;;1.52;;
41759;SDS011;27438;53.396;-6.670;2022-09-21T16:48:55;3.13;;;1.50;;
41759;SDS011;27438;53.396;-6.670;2022-09-21T16:51:25;3.33;;;1.42;;
41759;SDS011;27438;53.396;-6.670;2022-09-21T16:53:52;4.82;;;1.88;;
41759;SDS011;27438;53.396;-6.670;2022-09-21T16:56:24;9.40;;;2.03;;
41759;SDS011;27438;53.396;-6.670;2022-09-21T16:58:49;2.58;;;1.40;;
41759;SDS011;27438;53.396;-6.670;2022-09-21T17:01:16;4.88;;;1.73;;
41759;SDS011;27438;53.396;-6.670;2022-09-21T17:03:44;2.13;;;1.45;;
41759;SDS011;27438;53.396;-6.670;2022-09-21T17:06:18;3.13;;;1.30;;
41759;SDS011;27438;53.396;-6.670;2022-09-21T17:08:48;4.10;;;1.52;;
41759;SDS011;27438;53.396;-6.670;2022-09-21T17:11:17;5.03;;;1.90;;
41759;SDS011;27438;53.396;-6.670;2022-09-21T17:13:53;6.47;;;1.65;;
41759;SDS011;27438;53.396;-6.670;2022-09-21T17:16:25;3.47;;;1.77;;
41759;SDS011;27438;53.396;-6.670;2022-09-21T17:18:50;4.38;;;1.77;;
41759;SDS011;27438;53.396;-6.670;2022-09-21T17:21:17;2.67;;;1.42;;
41759;SDS011;27438;53.396;-6.670;2022-09-21T17:23:43;7.15;;;1.50;;
41759;SDS011;27438;53.396;-6.670;2022-09-21T17:26:13;2.55;;;1.30;;
41759;SDS011;27438;53.396;-6.670;2022-09-21T17:28:41;4.65;;;1.67;;
41759;SDS011;27438;53.396;-6.670;2022-09-21T17:31:11;5.65;;;1.58;;
41759;SDS011;27438;53.396;-6.670;2022-09-21T17:33:38;4.03;;;1.50;;
41759;SDS011;27438;53.396;-6.670;2022-09-21T17:36:04;3.05;;;1.45;;
41759;SDS011;27438;53.396;-6.670;2022-09-21T17:38:30;2.28;;;1.50;;
41759;SDS011;27438;53.396;-6.670;2022-09-21T17:40:57;3.47;;;1.42;;
41759;SDS011;27438;53.396;-6.670;2022-09-21T17:46:11;6.85;;;2.15;;
41759;SDS011;27438;53.396;-6.670;2022-09-21T17:48:47;2.50;;;1.45;;
41759;SDS011;27438;53.396;-6.670;2022-09-21T17:51:13;5.00;;;2.35;;
41759;SDS011;27438;53.396;-6.670;2022-09-21T17:53:59;2.50;;;1.80;;
41759;SDS011;27438;53.396;-6.670;2022-09-21T17:59:00;2.88;;;1.60;;
41759;SDS011;27438;53.396;-6.670;2022-09-21T18:03:59;5.35;;;2.08;;
41759;SDS011;27438;53.396;-6.670;2022-09-21T18:06:26;6.95;;;2.20;;
41759;SDS011;27438;53.396;-6.670;2022-09-21T18:08:52;11.38;;;2.38;;
41759;SDS011;27438;53.396;-6.670;2022-09-21T18:16:49;3.53;;;1.80;;
41759;SDS011;27438;53.396;-6.670;2022-09-21T18:19:23;5.88;;;2.47;;
41759;SDS011;27438;53.396;-6.670;2022-09-21T18:22:14;5.50;;;2.15;;
41759;SDS011;27438;53.396;-6.670;2022-09-21T18:24:44;4.30;;;2.72;;
41759;SDS011;27438;53.396;-6.670;2022-09-21T18:27:10;6.50;;;2.30;;
41759;SDS011;27438;53.396;-6.670;2022-09-21T18:29:36;5.60;;;2.58;;
41759;SDS011;27438;53.396;-6.670;2022-09-21T18:40:37;7.35;;;2.47;;
41759;SDS011;27438;53.396;-6.670;2022-09-21T18:43:25;4.78;;;2.35;;
41759;SDS011;27438;53.396;-6.670;2022-09-21T18:46:18;9.35;;;2.40;;
41759;SDS011;27438;53.396;-6.670;2022-09-21T18:48:56;5.38;;;2.25;;
41759;SDS011;27438;53.396;-6.670;2022-09-21T18:53:57;13.20;;;3.67;;
41759;SDS011;27438;53.396;-6.670;2022-09-21T18:56:25;5.13;;;2.38;;